Time;durP1;ratioP1;P1;durP2;ratioP2;P2;SDS_P1;SDS_P2;PMS_P1;PMS_P2;Temp;Humidity;BMP_temperature;BMP_pressure;BME280_temperature;BME280_humidity;BME280_pressure;Samples;Min_cycle;Max_cycle;Signal;HPM_P1;HPM_P2
2022/12/25 00:01:11;;;;;;;6.63;3.40;;;7.70;99.90;;;;;;5036259;28;20173;-91
2022/12/25 00:03:37;;;;;;;9.70;3.50;;;7.70;99.90;;;;;;5035662;28;20180;-91
2022/12/25 00:06:04;;;;;;;11.40;3.93;;;7.70;99.90;;;;;;5036078;28;20177;-90
2022/12/25 00:08:30;;;;;;;12.60;4.00;;;7.70;99.90;;;;;;5035866;28;20219;-90
2022/12/25 00:11:00;;;;;;;11.10;3.60;;;7.80;99.90;;;;;;5035842;28;20176;-90
2022/12/25 00:13:26;;;;;;;8.60;4.00;;;7.80;99.90;;;;;;5034881;28;20176;-91
2022/12/25 00:15:51;;;;;;;16.30;3.70;;;7.80;99.90;;;;;;5035012;28;20203;-91
2022/12/25 00:18:17;;;;;;;9.23;3.77;;;7.90;99.90;;;;;;5035401;28;20191;-91
2022/12/25 00:20:42;;;;;;;10.93;3.77;;;7.90;99.90;;;;;;5035655;28;20170;-90
2022/12/25 00:23:08;;;;;;;10.00;3.77;;;7.90;99.90;;;;;;5034993;28;20175;-90
2022/12/25 00:25:33;;;;;;;11.70;4.10;;;7.90;99.90;;;;;;5053108;28;20183;-90
2022/12/25 00:27:59;;;;;;;13.70;3.70;;;7.90;99.90;;;;;;5035103;28;20217;-90
2022/12/25 00:30:25;;;;;;;12.80;3.63;;;7.90;99.90;;;;;;5035547;28;20177;-90
2022/12/25 00:32:50;;;;;;;10.00;3.90;;;7.90;99.90;;;;;;5034752;28;20266;-90
2022/12/25 00:35:16;;;;;;;13.17;4.10;;;7.90;99.90;;;;;;5035121;28;20237;-91
2022/12/25 00:37:41;;;;;;;13.07;4.50;;;7.90;99.90;;;;;;5053001;28;20231;-90
2022/12/25 00:40:07;;;;;;;9.83;4.10;;;7.90;99.90;;;;;;5035359;28;20237;-90
2022/12/25 00:42:33;;;;;;;11.93;4.57;;;7.90;99.90;;;;;;5033469;28;20401;-91
2022/12/25 00:45:00;;;;;;;12.10;4.00;;;7.90;99.90;;;;;;5053190;28;20177;-90
2022/12/25 00:47:25;;;;;;;12.03;4.07;;;7.90;99.90;;;;;;5035076;28;20176;-91
2022/12/25 00:49:51;;;;;;;16.43;4.37;;;8.00;99.90;;;;;;5052886;28;20288;-91
2022/12/25 00:52:17;;;;;;;13.43;4.57;;;8.00;99.90;;;;;;5034440;28;20171;-91
2022/12/25 00:54:42;;;;;;;10.90;4.10;;;8.00;99.90;;;;;;5052660;28;20206;-90
2022/12/25 00:57:08;;;;;;;14.37;4.23;;;8.10;99.90;;;;;;5034915;28;20262;-91
2022/12/25 00:59:34;;;;;;;14.63;4.27;;;8.10;99.90;;;;;;5034316;28;20581;-90
2022/12/25 01:02:22;;;;;;;12.10;3.80;;;8.00;99.90;;;;;;5034867;28;20178;-91
2022/12/25 01:04:46;;;;;;;13.17;4.10;;;8.00;99.90;;;;;;5052102;28;20187;-90
2022/12/25 01:07:11;;;;;;;9.80;3.53;;;8.10;99.90;;;;;;5034789;28;20184;-91
2022/12/25 01:12:22;;;;;;;17.50;4.53;;;8.10;99.90;;;;;;5051890;28;20186;-90
2022/12/25 01:14:48;;;;;;;13.73;4.13;;;8.10;99.90;;;;;;5034400;28;20212;-90
2022/12/25 01:17:14;;;;;;;11.63;4.03;;;8.10;99.90;;;;;;5052329;28;20176;-90
2022/12/25 01:19:39;;;;;;;13.27;4.40;;;8.10;99.90;;;;;;5052718;28;20252;-91
2022/12/25 01:22:05;;;;;;;10.63;4.20;;;8.10;99.90;;;;;;5034407;28;20620;-90
2022/12/25 01:24:30;;;;;;;11.27;4.10;;;8.10;99.90;;;;;;5034176;28;20190;-90
2022/12/25 01:26:56;;;;;;;17.57;4.37;;;8.10;99.90;;;;;;5034783;28;20184;-91
2022/12/25 01:29:21;;;;;;;14.03;4.40;;;8.20;99.90;;;;;;5034674;28;20193;-90
2022/12/25 01:31:47;;;;;;;12.07;4.37;;;8.20;99.90;;;;;;5052207;28;20662;-90
2022/12/25 01:34:12;;;;;;;14.33;4.10;;;8.20;99.90;;;;;;5033941;28;20194;-91
2022/12/25 01:36:38;;;;;;;11.53;3.87;;;8.20;99.90;;;;;;5034536;28;20176;-90
2022/12/25 01:39:04;;;;;;;13.87;4.27;;;8.20;99.90;;;;;;5034477;28;20184;-91
2022/12/25 01:41:29;;;;;;;12.00;4.43;;;8.20;99.90;;;;;;5034876;28;20171;-91
2022/12/25 01:44:12;;;;;;;7.47;3.60;;;8.30;99.90;;;;;;5051928;28;20554;-90
2022/12/25 01:46:38;;;;;;;14.13;4.13;;;8.30;99.90;;;;;;5034681;28;20180;-90
2022/12/25 01:49:08;;;;;;;15.83;4.30;;;8.30;99.90;;;;;;5034442;28;20225;-91
2022/12/25 01:51:38;;;;;;;10.80;4.13;;;8.40;99.90;;;;;;5034142;28;20202;-91
2022/12/25 01:54:10;;;;;;;13.37;3.80;;;8.40;99.90;;;;;;5033865;28;20197;-90
2022/12/25 01:56:37;;;;;;;9.83;3.93;;;8.40;99.90;;;;;;5034259;28;20161;-91
2022/12/25 01:59:06;;;;;;;10.07;4.20;;;8.40;99.90;;;;;;5034300;28;20226;-90
2022/12/25 02:01:32;;;;;;;12.60;4.13;;;8.40;99.90;;;;;;5033890;28;20172;-91
2022/12/25 02:04:11;;;;;;;13.73;4.70;;;8.40;99.90;;;;;;5051348;28;20240;-90
2022/12/25 02:06:37;;;;;;;14.23;4.10;;;8.40;99.90;;;;;;5034249;28;20173;-91
2022/12/25 02:09:03;;;;;;;9.13;3.60;;;8.40;99.90;;;;;;5034059;28;20196;-90
2022/12/25 02:14:13;;;;;;;12.33;4.13;;;8.50;99.90;;;;;;5055468;28;20244;-91
2022/12/25 02:16:42;;;;;;;11.20;3.80;;;8.50;99.90;;;;;;5038187;28;20176;-90
2022/12/25 02:19:33;;;;;;;14.67;4.00;;;8.50;99.90;;;;;;5038096;28;20282;-90
2022/12/25 02:21:58;;;;;;;9.83;3.80;;;8.50;99.90;;;;;;5037821;28;20177;-90
2022/12/25 02:24:34;;;;;;;13.57;4.23;;;8.50;99.90;;;;;;5055145;28;20270;-91
2022/12/25 02:27:06;;;;;;;10.53;3.37;;;8.50;99.90;;;;;;5037982;28;20266;-90
2022/12/25 02:30:00;;;;;;;13.30;4.10;;;8.50;99.90;;;;;;5055497;28;20220;-90
2022/12/25 02:32:35;;;;;;;13.10;3.93;;;8.50;99.90;;;;;;5037492;28;20175;-90
2022/12/25 02:35:18;;;;;;;13.73;4.60;;;8.50;99.90;;;;;;5037481;28;20199;-90
2022/12/25 02:38:02;;;;;;;12.17;4.00;;;8.50;99.90;;;;;;5055572;28;20196;-91
2022/12/25 02:40:46;;;;;;;12.97;4.30;;;8.50;99.90;;;;;;5037612;28;20191;-91
2022/12/25 03:08:43;;;;;;;10.90;3.70;;;8.40;99.90;;;;;;5055928;28;20203;-91
2022/12/25 03:11:29;;;;;;;12.80;3.60;;;8.40;99.90;;;;;;5038084;28;20187;-91
2022/12/25 03:16:57;;;;;;;9.77;3.67;;;8.50;99.90;;;;;;5056670;28;20199;-91
2022/12/25 03:28:06;;;;;;;9.47;3.60;;;8.50;99.90;;;;;;5055141;28;20574;-91
2022/12/25 03:37:02;;;;;;;8.47;3.70;;;8.60;99.90;;;;;;5055234;28;20186;-91
2022/12/25 04:37:37;;;;;;;10.73;4.20;;;8.50;99.90;;;;;;5034128;28;20181;-83
2022/12/25 04:40:03;;;;;;;9.30;4.37;;;8.50;99.90;;;;;;5015996;28;20292;-83
2022/12/25 04:42:29;;;;;;;11.83;4.50;;;8.60;99.90;;;;;;5015898;28;20175;-83
2022/12/25 04:44:54;;;;;;;10.73;4.60;;;8.60;99.90;;;;;;5016261;28;20186;-83
2022/12/25 04:47:20;;;;;;;12.43;4.33;;;8.60;99.90;;;;;;5016261;28;20176;-84
2022/12/25 04:49:45;;;;;;;10.93;4.10;;;8.50;99.90;;;;;;5033848;28;20221;-84
2022/12/25 04:52:11;;;;;;;11.07;4.07;;;8.50;99.90;;;;;;5016314;28;20173;-84
2022/12/25 04:54:37;;;;;;;9.87;4.33;;;8.50;99.90;;;;;;5032309;28;20213;-84
2022/12/25 04:57:03;;;;;;;11.60;4.40;;;8.50;99.90;;;;;;5033625;28;20547;-83
2022/12/25 04:59:28;;;;;;;11.57;4.70;;;8.50;99.90;;;;;;5016167;28;20208;-83
2022/12/25 05:01:54;;;;;;;12.37;4.40;;;8.60;99.90;;;;;;5016079;28;20238;-84
2022/12/25 05:04:20;;;;;;;10.40;5.10;;;8.50;99.90;;;;;;5033031;28;20183;-83
2022/12/25 05:06:45;;;;;;;12.03;4.23;;;8.50;99.90;;;;;;5033506;28;20184;-83
2022/12/25 05:09:11;;;;;;;14.33;4.60;;;8.50;99.90;;;;;;5015763;28;20199;-83
2022/12/25 05:11:36;;;;;;;10.50;4.50;;;8.50;99.90;;;;;;5033743;28;20181;-83
2022/12/25 05:14:02;;;;;;;11.23;4.20;;;8.50;99.90;;;;;;5015073;28;20179;-81
2022/12/25 05:16:28;;;;;;;10.53;4.80;;;8.50;99.90;;;;;;5033510;28;20254;-84
2022/12/25 05:18:53;;;;;;;11.97;4.57;;;8.50;99.90;;;;;;5015559;28;20232;-84
2022/12/25 05:21:19;;;;;;;10.70;4.20;;;8.50;99.90;;;;;;5015782;28;20173;-83
2022/12/25 05:23:49;;;;;;;8.10;3.77;;;8.50;99.90;;;;;;5015143;28;20177;-83
2022/12/25 05:26:17;;;;;;;13.00;4.50;;;8.50;99.90;;;;;;5015623;28;20181;-84
2022/12/25 05:28:43;;;;;;;7.90;4.67;;;8.60;99.90;;;;;;5015592;28;20200;-83
2022/12/25 05:31:09;;;;;;;9.03;4.40;;;8.60;99.90;;;;;;5033268;28;20547;-84
2022/12/25 05:33:35;;;;;;;10.13;4.93;;;8.60;99.90;;;;;;5015098;28;20177;-84
2022/12/25 05:36:09;;;;;;;10.53;4.73;;;8.60;99.90;;;;;;5015462;28;20225;-84
2022/12/25 05:38:35;;;;;;;10.23;4.60;;;8.60;99.90;;;;;;5015427;28;20196;-84
2022/12/25 05:41:01;;;;;;;10.77;3.97;;;8.60;99.90;;;;;;5015300;28;20188;-84
2022/12/25 05:43:27;;;;;;;9.40;4.57;;;8.60;99.90;;;;;;5014677;28;20174;-84
2022/12/25 05:45:53;;;;;;;9.67;4.37;;;8.60;99.90;;;;;;5032756;28;20620;-83
2022/12/25 05:48:19;;;;;;;8.07;3.60;;;8.60;99.90;;;;;;5015397;28;20208;-84
2022/12/25 05:50:44;;;;;;;7.53;4.00;;;8.60;99.90;;;;;;5033339;28;20213;-84
2022/12/25 05:53:13;;;;;;;7.87;3.70;;;8.60;99.90;;;;;;5014337;28;20248;-84
2022/12/25 05:55:42;;;;;;;6.07;3.70;;;8.60;99.90;;;;;;5015378;28;20239;-84
2022/12/25 05:58:09;;;;;;;7.07;4.03;;;8.60;99.90;;;;;;5015268;28;20212;-83
2022/12/25 06:00:36;;;;;;;9.13;3.80;;;8.60;99.90;;;;;;5033179;28;20633;-84
2022/12/25 06:03:02;;;;;;;7.87;3.83;;;8.60;99.90;;;;;;5015097;28;20181;-84
2022/12/25 06:05:27;;;;;;;9.83;4.20;;;8.60;99.90;;;;;;5033291;28;20181;-84
2022/12/25 06:07:53;;;;;;;9.20;3.97;;;8.60;99.90;;;;;;5015290;28;20182;-81
2022/12/25 06:10:19;;;;;;;9.60;4.77;;;8.60;99.90;;;;;;5015155;28;20188;-83
2022/12/25 06:12:44;;;;;;;8.47;4.10;;;8.60;99.90;;;;;;5014481;28;20223;-86
2022/12/25 06:15:10;;;;;;;12.93;4.03;;;8.60;99.90;;;;;;5032775;28;20207;-84
2022/12/25 06:17:35;;;;;;;7.83;3.47;;;8.60;99.90;;;;;;5014630;28;20306;-83
2022/12/25 06:20:01;;;;;;;7.60;3.90;;;8.50;99.90;;;;;;5014417;28;20191;-83
2022/12/25 06:22:30;;;;;;;8.77;3.93;;;8.50;99.90;;;;;;5014124;28;20186;-82
2022/12/25 06:24:56;;;;;;;7.87;4.10;;;8.50;99.90;;;;;;5014636;28;20231;-83
2022/12/25 06:27:21;;;;;;;6.53;3.40;;;8.60;99.90;;;;;;5014676;28;20209;-84
2022/12/25 06:29:47;;;;;;;8.13;3.60;;;8.80;99.90;;;;;;5014256;28;20567;-86
2022/12/25 06:32:12;;;;;;;8.70;3.90;;;8.80;99.90;;;;;;5031358;28;20173;-82
2022/12/25 06:34:38;;;;;;;11.37;4.03;;;8.80;99.90;;;;;;5014339;28;20247;-83
2022/12/25 06:37:03;;;;;;;6.40;3.70;;;8.70;99.90;;;;;;5014655;28;20184;-82
2022/12/25 06:39:29;;;;;;;7.10;3.90;;;8.60;99.90;;;;;;5014269;28;20689;-87
2022/12/25 06:41:55;;;;;;;5.70;3.63;;;8.60;99.90;;;;;;5013613;28;20221;-88
2022/12/25 06:44:20;;;;;;;5.93;3.70;;;8.50;99.90;;;;;;5013461;28;20184;-87
2022/12/25 06:46:46;;;;;;;7.23;3.80;;;8.50;99.90;;;;;;5014136;28;20710;-89
2022/12/25 06:49:12;;;;;;;8.50;4.00;;;8.50;99.90;;;;;;5013603;28;20209;-89
2022/12/25 06:51:37;;;;;;;7.13;3.20;;;8.50;99.90;;;;;;5013596;28;20182;-88
2022/12/25 06:54:03;;;;;;;6.67;3.70;;;8.50;99.90;;;;;;5013577;28;20204;-88
2022/12/25 06:56:29;;;;;;;6.17;3.23;;;8.50;99.90;;;;;;5013794;28;20646;-88
2022/12/25 06:59:00;;;;;;;8.83;3.70;;;8.50;99.90;;;;;;5033473;28;20203;-89
2022/12/25 07:01:56;;;;;;;9.17;4.10;;;8.40;99.90;;;;;;5017237;28;20669;-85
2022/12/25 07:04:39;;;;;;;11.20;4.03;;;8.40;99.90;;;;;;5026134;28;20196;-84
2022/12/25 07:07:06;;;;;;;5.80;3.70;;;8.30;99.90;;;;;;5017387;28;20228;-84
2022/12/25 07:09:32;;;;;;;9.27;3.73;;;8.30;99.90;;;;;;5017362;28;20196;-85
2022/12/25 07:12:06;;;;;;;6.50;3.30;;;8.30;99.90;;;;;;5017363;28;20243;-87
2022/12/25 07:14:31;;;;;;;7.13;3.03;;;8.30;99.90;;;;;;5016729;28;20212;-84
2022/12/25 07:16:57;;;;;;;5.67;2.87;;;8.30;99.90;;;;;;5017552;28;20182;-85
2022/12/25 07:19:23;;;;;;;5.90;3.40;;;8.30;99.90;;;;;;5018550;28;20576;-81
2022/12/25 07:21:48;;;;;;;6.47;2.50;;;8.30;99.90;;;;;;5036470;28;20185;-84
2022/12/25 07:24:19;;;;;;;5.90;2.80;;;8.30;99.90;;;;;;5018536;28;20189;-84
2022/12/25 07:26:44;;;;;;;6.53;3.63;;;8.30;99.90;;;;;;5035691;28;20521;-84
2022/12/25 07:29:10;;;;;;;6.20;3.77;;;8.30;99.90;;;;;;5018219;28;20354;-85
2022/12/25 07:31:36;;;;;;;7.20;3.80;;;8.30;99.90;;;;;;5017360;28;20177;-85
2022/12/25 07:34:02;;;;;;;5.63;3.70;;;8.30;99.90;;;;;;5013865;28;20563;-85
2022/12/25 07:36:29;;;;;;;6.73;3.90;;;8.30;99.90;;;;;;5017594;28;20635;-83
2022/12/25 07:38:55;;;;;;;6.77;3.40;;;8.20;99.90;;;;;;5035683;28;20202;-83
2022/12/25 07:41:21;;;;;;;8.60;3.70;;;8.30;99.90;;;;;;5017978;28;20247;-84
2022/12/25 07:43:53;;;;;;;7.40;3.50;;;8.30;99.90;;;;;;5031735;28;20188;-84
2022/12/25 07:46:21;;;;;;;6.53;3.40;;;8.30;99.90;;;;;;5027642;28;20186;-84
2022/12/25 07:48:47;;;;;;;5.03;3.43;;;8.30;99.90;;;;;;5017436;28;20213;-84
2022/12/25 07:51:14;;;;;;;6.10;3.70;;;8.20;99.90;;;;;;5034916;28;20169;-83
2022/12/25 07:53:40;;;;;;;6.30;3.13;;;8.20;99.90;;;;;;5017085;28;20173;-83
2022/12/25 07:56:12;;;;;;;9.73;3.10;;;8.20;99.90;;;;;;5017040;28;20266;-84
2022/12/25 07:58:38;;;;;;;6.43;3.10;;;8.20;99.90;;;;;;5017122;28;20204;-83
2022/12/25 08:01:15;;;;;;;6.53;2.93;;;8.30;99.90;;;;;;5033094;28;20182;-83
2022/12/25 08:03:40;;;;;;;5.70;2.90;;;8.30;99.90;;;;;;5033902;28;20184;-83
2022/12/25 08:06:08;;;;;;;7.47;2.93;;;8.20;99.90;;;;;;5035097;28;20182;-83
2022/12/25 08:08:35;;;;;;;8.97;3.73;;;8.30;99.90;;;;;;5035106;28;20212;-84
2022/12/25 08:11:01;;;;;;;5.27;2.13;;;8.30;99.90;;;;;;5035396;28;20185;-84
2022/12/25 08:13:30;;;;;;;4.70;2.13;;;8.40;99.90;;;;;;5033225;28;20177;-85
2022/12/25 08:15:58;;;;;;;5.70;2.43;;;8.50;99.90;;;;;;5035422;28;20399;-83
2022/12/25 08:18:24;;;;;;;7.93;2.60;;;8.50;99.90;;;;;;5035054;28;20334;-83
2022/12/25 08:20:49;;;;;;;4.67;2.23;;;8.50;99.90;;;;;;5034873;28;20205;-83
2022/12/25 08:23:15;;;;;;;5.23;2.43;;;8.60;99.90;;;;;;5033104;28;20191;-83
2022/12/25 08:25:40;;;;;;;5.40;2.60;;;8.60;99.90;;;;;;5035107;28;20181;-83
2022/12/25 08:28:06;;;;;;;3.53;2.30;;;8.70;99.90;;;;;;5035001;28;20176;-83
2022/12/25 08:30:32;;;;;;;4.20;2.60;;;8.70;99.90;;;;;;5037071;28;20186;-83
2022/12/25 08:32:57;;;;;;;5.90;2.60;;;8.80;99.90;;;;;;5034570;28;20177;-85
2022/12/25 08:35:25;;;;;;;4.63;2.73;;;8.80;99.90;;;;;;5033821;28;20202;-83
2022/12/25 08:37:50;;;;;;;5.23;2.80;;;8.80;99.90;;;;;;5033547;28;20188;-83
2022/12/25 08:40:16;;;;;;;4.03;2.47;;;8.90;99.90;;;;;;5034610;28;20166;-84
2022/12/25 08:42:42;;;;;;;6.23;2.57;;;9.00;99.90;;;;;;5033300;28;20221;-85
2022/12/25 08:45:08;;;;;;;2.93;2.20;;;9.10;99.90;;;;;;5033442;28;20185;-83
2022/12/25 08:47:34;;;;;;;5.70;2.47;;;9.10;99.90;;;;;;5035298;28;20178;-83
2022/12/25 08:49:59;;;;;;;5.23;2.30;;;9.20;99.90;;;;;;5034597;28;20239;-83
2022/12/25 08:52:26;;;;;;;4.00;2.10;;;9.20;99.90;;;;;;5032267;28;20191;-84
2022/12/25 08:54:52;;;;;;;3.70;1.90;;;9.30;99.90;;;;;;5033128;28;20216;-84
2022/12/25 08:57:17;;;;;;;3.47;1.90;;;9.30;99.90;;;;;;5034773;28;20638;-84
2022/12/25 08:59:43;;;;;;;2.83;1.90;;;9.30;99.90;;;;;;5034305;28;20280;-84
2022/12/25 09:02:10;;;;;;;2.53;1.80;;;9.30;99.90;;;;;;5032864;28;20204;-83
2022/12/25 09:04:36;;;;;;;2.10;1.80;;;9.30;99.90;;;;;;5032135;28;20177;-84
2022/12/25 09:07:01;;;;;;;2.43;1.70;;;9.30;99.90;;;;;;5032752;28;20187;-84
2022/12/25 09:09:27;;;;;;;2.47;1.70;;;9.30;99.90;;;;;;5032712;28;20206;-84
2022/12/25 09:11:53;;;;;;;2.73;1.90;;;9.20;99.90;;;;;;5032829;28;20191;-87
2022/12/25 09:14:19;;;;;;;3.10;1.70;;;9.20;99.90;;;;;;5033562;28;20675;-87
2022/12/25 09:16:45;;;;;;;2.07;1.87;;;9.20;99.90;;;;;;5034415;28;20261;-83
2022/12/25 09:19:10;;;;;;;5.93;1.90;;;9.30;99.90;;;;;;5033703;28;20189;-84
2022/12/25 09:21:36;;;;;;;1.60;1.50;;;9.30;99.90;;;;;;5032278;28;20203;-84
2022/12/25 09:24:03;;;;;;;3.70;1.90;;;9.20;99.90;;;;;;5033379;28;20208;-86
2022/12/25 09:26:28;;;;;;;3.07;1.70;;;9.30;99.90;;;;;;5034192;28;20181;-84
2022/12/25 09:28:54;;;;;;;1.63;1.53;;;9.30;99.90;;;;;;5032558;28;20211;-85
2022/12/25 09:31:21;;;;;;;2.50;1.60;;;9.30;99.90;;;;;;5032105;28;20174;-84
2022/12/25 09:33:47;;;;;;;3.00;1.90;;;9.40;99.90;;;;;;5032043;28;20179;-84
2022/12/25 09:36:13;;;;;;;3.13;1.80;;;9.40;99.90;;;;;;5035175;28;20190;-84
2022/12/25 09:38:38;;;;;;;2.97;1.77;;;9.50;99.90;;;;;;5033578;28;20240;-84
2022/12/25 09:41:16;;;;;;;3.77;1.97;;;9.60;99.90;;;;;;5033214;28;20202;-84
2022/12/25 09:43:50;;;;;;;2.77;2.07;;;9.70;99.90;;;;;;5031730;28;20239;-84
2022/12/25 09:46:22;;;;;;;2.73;1.93;;;9.70;99.90;;;;;;5034815;28;20236;-84
2022/12/25 09:49:06;;;;;;;2.60;1.70;;;9.70;99.90;;;;;;5065098;22;20224;-86
2022/12/25 09:51:36;;;;;;;3.50;2.03;;;9.70;99.90;;;;;;5056771;28;20557;-85
2022/12/25 09:54:38;;;;;;;1.80;1.63;;;10.00;99.90;;;;;;5074203;28;20168;-86
2022/12/25 09:57:04;;;;;;;1.80;1.50;;;10.20;99.90;;;;;;4990713;28;20212;-85
2022/12/25 09:59:30;;;;;;;4.30;1.50;;;10.40;99.90;;;;;;5064321;28;20189;-85
2022/12/25 10:02:14;;;;;;;2.83;1.70;;;10.60;99.90;;;;;;5036482;28;20187;-85
2022/12/25 10:05:11;;;;;;;2.30;1.80;;;10.70;99.90;;;;;;5036733;28;20177;-85
2022/12/25 10:07:43;;;;;;;2.53;1.77;;;10.90;99.90;;;;;;5036235;28;20182;-85
2022/12/25 10:10:30;;;;;;;2.53;1.47;;;10.80;99.90;;;;;;5054014;28;20189;-86
2022/12/25 10:13:17;;;;;;;2.03;1.57;;;10.50;99.90;;;;;;5036172;28;20176;-85
2022/12/25 10:16:00;;;;;;;2.37;1.50;;;10.40;99.90;;;;;;5035788;28;20247;-85
2022/12/25 10:18:50;;;;;;;1.67;1.17;;;10.30;99.90;;;;;;5035477;28;20273;-85
2022/12/25 10:21:17;;;;;;;1.73;1.33;;;10.20;99.90;;;;;;5037260;28;20181;-86
2022/12/25 10:24:00;;;;;;;2.77;1.40;;;10.20;99.90;;;;;;5042335;28;20182;-86
2022/12/25 10:26:30;;;;;;;3.10;1.40;;;10.20;99.90;;;;;;5030463;28;20181;-85
2022/12/25 10:29:20;;;;;;;1.60;1.20;;;10.10;99.90;;;;;;5036945;28;20197;-85
2022/12/25 10:31:48;;;;;;;2.00;1.20;;;10.10;99.90;;;;;;5034490;28;20239;-85
2022/12/25 10:34:15;;;;;;;1.43;1.10;;;10.10;99.90;;;;;;5055116;28;20196;-85
2022/12/25 10:36:44;;;;;;;3.03;1.37;;;10.10;99.90;;;;;;5037604;28;20266;-86
2022/12/25 10:39:24;;;;;;;2.73;1.30;;;10.10;99.90;;;;;;5058685;28;20198;-85
2022/12/25 10:42:18;;;;;;;2.70;1.40;;;10.10;99.90;;;;;;5056218;28;20268;-82
2022/12/25 10:45:01;;;;;;;2.97;1.60;;;10.10;99.90;;;;;;5057352;28;20198;-85
2022/12/25 10:47:29;;;;;;;3.70;1.67;;;10.10;99.90;;;;;;5056598;28;20165;-85
2022/12/25 10:49:56;;;;;;;2.47;1.50;;;10.00;99.90;;;;;;5056393;28;20213;-85
2022/12/25 10:52:25;;;;;;;1.87;1.37;;;10.00;99.90;;;;;;5056675;28;20181;-86
2022/12/25 10:54:51;;;;;;;4.67;1.63;;;10.00;99.90;;;;;;5057832;28;20227;-86
2022/12/25 10:57:20;;;;;;;2.47;1.23;;;10.00;99.90;;;;;;5056062;28;20191;-86
2022/12/25 10:59:54;;;;;;;1.63;1.10;;;10.10;99.90;;;;;;5056102;28;20212;-85
2022/12/25 11:02:34;;;;;;;1.70;1.10;;;10.10;99.90;;;;;;5056992;28;20220;-85
2022/12/25 11:05:03;;;;;;;2.40;0.90;;;10.10;99.90;;;;;;5056913;28;20168;-86
2022/12/25 11:07:30;;;;;;;2.13;1.10;;;10.20;99.90;;;;;;5057821;28;20173;-85
2022/12/25 11:10:00;;;;;;;1.20;1.10;;;10.20;99.90;;;;;;5056272;28;20642;-85
2022/12/25 11:12:31;;;;;;;1.53;1.07;;;10.20;99.90;;;;;;5056941;28;20264;-86
2022/12/25 11:15:01;;;;;;;1.20;1.10;;;10.20;99.90;;;;;;5056123;28;20181;-85
2022/12/25 11:17:27;;;;;;;2.07;1.20;;;10.20;99.90;;;;;;5058251;28;20181;-86
2022/12/25 11:20:00;;;;;;;1.60;1.07;;;10.20;99.90;;;;;;5056354;28;20193;-85
2022/12/25 11:22:27;;;;;;;2.20;1.13;;;10.20;99.90;;;;;;5056081;28;20176;-86
2022/12/25 11:24:53;;;;;;;2.70;1.17;;;10.20;99.90;;;;;;5057538;28;20683;-86
2022/12/25 11:27:28;;;;;;;1.13;1.03;;;10.10;99.90;;;;;;5056478;28;20170;-85
2022/12/25 11:29:58;;;;;;;1.70;1.17;;;10.10;99.90;;;;;;5056606;28;20284;-85
2022/12/25 11:32:31;;;;;;;1.20;1.10;;;10.10;99.90;;;;;;5057850;28;20184;-86
2022/12/25 11:35:00;;;;;;;1.50;1.10;;;10.10;99.90;;;;;;5057765;28;20229;-85
2022/12/25 11:37:40;;;;;;;1.50;1.20;;;10.10;99.90;;;;;;5056790;28;20174;-85
2022/12/25 11:40:12;;;;;;;1.27;1.10;;;10.10;99.90;;;;;;5057813;28;20192;-85
2022/12/25 11:42:44;;;;;;;1.93;1.33;;;10.20;99.90;;;;;;5056054;28;20165;-85
2022/12/25 11:45:18;;;;;;;1.27;1.10;;;10.20;99.90;;;;;;5057315;28;20165;-85
2022/12/25 11:48:12;;;;;;;1.63;1.40;;;10.20;99.90;;;;;;5056515;28;20200;-86
2022/12/25 11:50:45;;;;;;;1.90;1.50;;;10.20;99.90;;;;;;5056396;28;20204;-85
2022/12/25 11:53:47;;;;;;;2.70;1.53;;;10.20;99.90;;;;;;5056059;28;20173;-85
2022/12/25 11:56:31;;;;;;;2.27;1.40;;;10.10;99.90;;;;;;5005630;28;20316;-86
2022/12/25 11:59:15;;;;;;;2.23;1.20;;;10.10;99.90;;;;;;5056137;28;20193;-85
2022/12/25 12:02:08;;;;;;;1.30;1.20;;;10.10;99.90;;;;;;5055880;28;20170;-85
2022/12/25 12:04:39;;;;;;;1.90;1.30;;;10.10;99.90;;;;;;5055802;28;20263;-86
2022/12/25 12:07:23;;;;;;;2.13;1.40;;;10.10;99.90;;;;;;5057041;28;20180;-85
2022/12/25 12:10:04;;;;;;;2.50;1.23;;;10.10;99.90;;;;;;5055813;28;20215;-85
2022/12/25 12:12:42;;;;;;;1.47;1.33;;;10.20;99.90;;;;;;5056257;28;20166;-85
2022/12/25 12:15:29;;;;;;;2.17;1.20;;;10.20;99.90;;;;;;5055642;28;20200;-85
2022/12/25 12:18:06;;;;;;;1.40;1.20;;;10.30;99.90;;;;;;5055693;28;20259;-86
2022/12/25 12:20:34;;;;;;;1.23;1.10;;;10.30;99.90;;;;;;5055654;28;20189;-86
2022/12/25 12:23:10;;;;;;;1.87;1.30;;;10.30;99.90;;;;;;5057403;28;20169;-85
2022/12/25 12:25:40;;;;;;;2.23;1.53;;;10.30;99.90;;;;;;5056300;28;20223;-84
2022/12/25 12:28:12;;;;;;;2.67;1.70;;;10.40;99.90;;;;;;5056529;28;20181;-85
2022/12/25 12:30:38;;;;;;;1.77;1.60;;;10.40;99.90;;;;;;5056728;28;20190;-85
2022/12/25 12:33:06;;;;;;;1.77;1.40;;;10.40;99.90;;;;;;5057347;28;20181;-86
2022/12/25 12:35:36;;;;;;;1.77;1.20;;;10.40;99.90;;;;;;5055874;28;20202;-85
2022/12/25 12:38:16;;;;;;;1.17;1.07;;;10.50;99.90;;;;;;5056398;28;20185;-85
2022/12/25 12:40:54;;;;;;;1.90;1.33;;;10.50;99.90;;;;;;5056176;28;20201;-85
2022/12/25 12:43:30;;;;;;;1.60;1.37;;;10.50;99.90;;;;;;5055761;28;20619;-85
2022/12/25 12:46:11;;;;;;;2.17;1.73;;;10.50;99.90;;;;;;5056243;28;20184;-85
2022/12/25 12:48:43;;;;;;;1.60;1.37;;;10.40;99.90;;;;;;5055607;28;20277;-86
2022/12/25 12:51:12;;;;;;;2.17;1.40;;;10.40;99.90;;;;;;5056793;28;20201;-86
2022/12/25 12:53:40;;;;;;;1.30;1.20;;;10.40;99.90;;;;;;5056241;28;20766;-85
2022/12/25 12:56:17;;;;;;;1.83;1.63;;;10.40;99.90;;;;;;5054318;28;20676;-85
2022/12/25 12:58:49;;;;;;;2.27;1.40;;;10.30;99.90;;;;;;5057469;28;20200;-86
2022/12/25 13:01:30;;;;;;;1.60;1.50;;;10.30;99.90;;;;;;5055810;28;20180;-87
2022/12/25 13:04:20;;;;;;;1.87;1.40;;;10.30;99.90;;;;;;5056717;28;20185;-86
2022/12/25 13:07:19;;;;;;;1.63;1.40;;;10.30;99.90;;;;;;5057010;28;20182;-85
2022/12/25 13:09:56;;;;;;;2.30;1.70;;;10.30;99.90;;;;;;5055103;28;20704;-86
2022/12/25 13:12:23;;;;;;;2.27;1.50;;;10.30;99.90;;;;;;5055390;28;20193;-85
2022/12/25 13:14:50;;;;;;;1.87;1.60;;;10.30;99.90;;;;;;5055132;28;20690;-86
2022/12/25 13:17:22;;;;;;;2.20;1.40;;;10.30;99.90;;;;;;5055258;28;20205;-86
2022/12/25 13:19:53;;;;;;;2.00;1.80;;;10.30;99.90;;;;;;5055835;28;20190;-86
2022/12/25 13:22:25;;;;;;;2.10;1.70;;;10.30;99.90;;;;;;5056846;28;20210;-86
2022/12/25 13:25:00;;;;;;;1.70;1.53;;;10.40;99.90;;;;;;5055996;28;20616;-85
2022/12/25 13:27:29;;;;;;;1.50;1.40;;;10.40;99.90;;;;;;5055985;28;20266;-86
2022/12/25 13:29:56;;;;;;;1.53;1.37;;;10.40;99.90;;;;;;5055747;28;20269;-85
2022/12/25 13:32:32;;;;;;;1.50;1.37;;;10.50;99.90;;;;;;5055516;28;20237;-85
2022/12/25 13:34:59;;;;;;;1.57;1.30;;;10.50;99.90;;;;;;5056198;28;20570;-85
2022/12/25 13:37:28;;;;;;;1.83;1.50;;;10.50;99.90;;;;;;5055449;28;20272;-85
2022/12/25 13:39:55;;;;;;;1.97;1.30;;;10.50;99.90;;;;;;5057343;28;20193;-85
2022/12/25 13:42:25;;;;;;;2.20;1.63;;;10.60;99.90;;;;;;5055592;28;20173;-86
2022/12/25 13:45:21;;;;;;;1.97;1.43;;;10.60;99.90;;;;;;5055477;28;20170;-85
2022/12/25 13:47:48;;;;;;;1.87;1.13;;;10.50;99.90;;;;;;5050853;28;20209;-86
2022/12/25 13:50:22;;;;;;;1.77;1.30;;;10.50;99.90;;;;;;5055846;28;20236;-86
2022/12/25 13:52:48;;;;;;;1.70;1.30;;;10.50;99.90;;;;;;5054428;28;20188;-85
2022/12/25 13:55:23;;;;;;;2.20;1.43;;;10.50;99.90;;;;;;5057721;28;20206;-85
2022/12/25 13:58:06;;;;;;;2.20;1.40;;;10.50;99.90;;;;;;5057774;28;20165;-85
2022/12/25 14:00:44;;;;;;;1.57;1.20;;;10.50;99.90;;;;;;5057264;28;20204;-85
2022/12/25 14:03:20;;;;;;;1.83;1.40;;;10.50;99.90;;;;;;5055858;28;20165;-85
2022/12/25 14:05:58;;;;;;;1.77;1.50;;;10.60;99.90;;;;;;5055701;28;20169;-85
2022/12/25 14:08:27;;;;;;;1.70;1.37;;;10.50;99.90;;;;;;5058537;28;20191;-84
2022/12/25 14:10:54;;;;;;;2.17;1.33;;;10.50;99.90;;;;;;5059890;28;20177;-86
2022/12/25 14:13:23;;;;;;;1.70;1.30;;;10.50;99.90;;;;;;5059347;28;20178;-85
2022/12/25 14:15:51;;;;;;;1.70;1.20;;;10.60;99.90;;;;;;5059876;28;20202;-86
2022/12/25 14:18:20;;;;;;;1.70;1.40;;;10.60;99.90;;;;;;5060626;28;20224;-85
2022/12/25 14:20:57;;;;;;;1.73;1.53;;;10.60;99.90;;;;;;5059085;28;20174;-84
2022/12/25 14:23:23;;;;;;;2.67;1.67;;;10.70;99.90;;;;;;5060138;28;20635;-86
2022/12/25 14:25:49;;;;;;;2.03;1.43;;;10.70;99.90;;;;;;5059655;28;20177;-85
2022/12/25 14:28:25;;;;;;;1.80;1.60;;;10.60;99.90;;;;;;5059989;28;20253;-85
2022/12/25 14:30:52;;;;;;;1.60;1.50;;;10.60;99.90;;;;;;5059928;28;20153;-86
2022/12/25 14:33:24;;;;;;;2.50;1.70;;;10.60;99.90;;;;;;5059085;28;20197;-86
2022/12/25 14:35:51;;;;;;;2.10;1.70;;;10.80;99.90;;;;;;5058917;28;20197;-85
2022/12/25 14:38:33;;;;;;;2.40;2.13;;;10.70;99.90;;;;;;5059118;28;20166;-85
2022/12/25 14:41:18;;;;;;;2.40;1.90;;;10.70;99.90;;;;;;5060226;28;20233;-85
2022/12/25 14:43:54;;;;;;;3.73;1.80;;;10.70;99.90;;;;;;5058725;28;20651;-85
2022/12/25 14:46:26;;;;;;;2.53;1.90;;;10.70;99.90;;;;;;5059417;28;20180;-85
2022/12/25 14:49:19;;;;;;;2.37;2.00;;;10.70;99.90;;;;;;5059788;28;20292;-84
2022/12/25 14:51:45;;;;;;;2.40;2.07;;;10.60;99.90;;;;;;5057200;28;20243;-84
2022/12/25 14:54:29;;;;;;;2.50;1.90;;;10.60;99.90;;;;;;5057506;28;20185;-86